Airfield :
LOGIN :

Register | Disclaimer

   EN    FR    IT 

 










Legend :    VFR   Marginal VFR   IFR   Intensive IFR   Very Intensive IFR
Visi :
Ceiling :
>= 8 km
>= 3000ft
5 to 8 km
1000 to 3000 ft
1500m to 5 km
500 to 1000 ft
800 to 1500m
200 to 500 ft
< 800m
< 200 ft
Symbols :   Thunderstorms  Fog  Heavy snow  Heavy precipitations  Wind > 20 kt
SIGMETs :     Misc.  Thunderstorms  Icing  Turbulence  Mountain Waves  Volcanic Ashes






- Airport Elevation : 1682 ft
- IATA code : VIT


LEVT - Vitoria Gasteiz

CURRENT METAR :
  • 220830Z VRB01KT 9999 FEW025 SCT060 11/11 Q1013

EXPIRED METARs :
  • 220800Z VRB01KT 9999 FEW035 BKN060 11/10 Q1013
  • 220730Z 00000KT 9999 FEW035 BKN060 10/10 Q1012
  • 220700Z VRB01KT 9999 FEW035 BKN060 10/09 Q1012
  • 220630Z 25003KT 180V320 9999 FEW035 BKN060 09/09 Q1012
  • 220600Z VRB02KT 9999 SCT060 09/09 Q1012

TAF TAF LEVT
Valid from the 22 at 06:00 until the 23 at 06:00 UTC


220500Z 2206/2306 VRB06KT 9999 FEW035 BKN060 TX16/2213Z TN08/2206Z
TEMPO 2210/2220 3000 SHRA BKN014 FEW030CB SCT035TCU
TEMPO 2300/2306 23010KT 3000 RA



MET'MAP, your aeronautical weather chart ! - Copyright ORBIFLY December 2007 - Disclaimer

ORBIFLY MET'MAP TEAM :

Programming & Development : Alexandra Zaïnal
Concept & original design : Baudouin d'Aumeries
Assistance for programming : Marc-Olivier Méhu
Technical & hardware support : Manuel Goepfert

Contact : metmap@orbifly.com




SOURCES & CREDITS :

   NOAA